Time;durP1;ratioP1;P1;durP2;ratioP2;P2;SDS_P1;SDS_P2;PMS_P1;PMS_P2;Temp;Humidity;BMP_temperature;BMP_pressure;BME280_temperature;BME280_humidity;BME280_pressure;Samples;Min_cycle;Max_cycle;Signal;HPM_P1;HPM_P2
2023/12/06 00:00:15;;;;;;;;;;;1.00;99.90;;;;;;5120354;27;20017;-30
2023/12/06 00:02:42;;;;;;;;;;;1.00;99.90;;;;;;5147949;27;19991;-30
2023/12/06 00:05:10;;;;;;;;;;;1.00;99.90;;;;;;5116949;27;19990;-30
2023/12/06 00:07:37;;;;;;;;;;;1.00;99.90;;;;;;5137376;27;19986;-30
2023/12/06 00:10:05;;;;;;;;;;;1.00;99.90;;;;;;5129497;27;20011;-30
2023/12/06 00:12:32;;;;;;;;;;;1.00;99.90;;;;;;5156093;27;20017;-29
2023/12/06 00:14:59;;;;;;;;;;;1.00;99.90;;;;;;5118441;27;19964;-31
2023/12/06 00:17:25;;;;;;;;;;;1.00;99.90;;;;;;5116292;27;19942;-30
2023/12/06 00:19:52;;;;;;;;;;;1.00;99.90;;;;;;5127089;27;19999;-30
2023/12/06 00:22:19;;;;;;;;;;;1.00;99.90;;;;;;5112277;27;19990;-30
2023/12/06 00:24:45;;;;;;;;;;;1.00;99.90;;;;;;5114769;27;19936;-30
2023/12/06 00:27:13;;;;;;;;;;;1.10;99.90;;;;;;5115008;27;19942;-30
2023/12/06 00:29:40;;;;;;;;;;;1.00;99.90;;;;;;5114662;27;19937;-30
2023/12/06 00:32:07;;;;;;;;;;;1.00;99.90;;;;;;5130900;27;19960;-29
2023/12/06 00:34:33;;;;;;;;;;;1.00;99.90;;;;;;5114710;27;19955;-30
2023/12/06 00:37:00;;;;;;;;;;;1.00;99.90;;;;;;5133592;27;19938;-30
2023/12/06 00:39:27;;;;;;;;;;;1.00;99.90;;;;;;5133063;27;19939;-30
2023/12/06 00:41:53;;;;;;;;;;;1.00;99.90;;;;;;5131330;27;19958;-30
2023/12/06 00:44:21;;;;;;;;;;;1.00;99.90;;;;;;5115210;27;20288;-30
2023/12/06 00:46:49;;;;;;;;;;;1.00;99.90;;;;;;5133322;27;19940;-29
2023/12/06 00:49:17;;;;;;;;;;;1.00;99.90;;;;;;5115072;27;20155;-30
2023/12/06 00:51:43;;;;;;;;;;;1.00;99.90;;;;;;5133226;27;20350;-31
2023/12/06 00:54:11;;;;;;;;;;;1.00;99.90;;;;;;5117630;27;19954;-31
2023/12/06 00:56:37;;;;;;;;;;;1.00;99.90;;;;;;5137165;27;19939;-29
2023/12/06 00:59:04;;;;;;;;;;;1.00;99.90;;;;;;5137028;27;20276;-30
2023/12/06 01:01:32;;;;;;;;;;;1.10;99.90;;;;;;5130822;27;19941;-30
2023/12/06 01:03:59;;;;;;;;;;;1.10;99.90;;;;;;5132893;27;19940;-29
2023/12/06 01:06:26;;;;;;;;;;;1.10;99.90;;;;;;5114757;27;19938;-30
2023/12/06 01:08:52;;;;;;;;;;;1.00;99.90;;;;;;5103117;27;19942;-30
2023/12/06 01:11:19;;;;;;;;;;;1.10;99.90;;;;;;5116051;27;19928;-30
2023/12/06 01:13:45;;;;;;;;;;;1.10;99.90;;;;;;5115443;27;19961;-30
2023/12/06 01:16:12;;;;;;;;;;;1.10;99.90;;;;;;5148938;27;19939;-30
2023/12/06 01:18:40;;;;;;;;;;;1.10;99.90;;;;;;5130916;27;19941;-30
2023/12/06 01:21:07;;;;;;;;;;;1.10;99.90;;;;;;5142025;27;19943;-30
2023/12/06 01:23:34;;;;;;;;;;;1.10;99.90;;;;;;5143749;27;19943;-29
2023/12/06 01:26:00;;;;;;;;;;;1.10;99.90;;;;;;5116827;27;19988;-29
2023/12/06 01:28:27;;;;;;;;;;;1.10;99.90;;;;;;5115760;27;20023;-30
2023/12/06 01:30:53;;;;;;;;;;;1.10;99.90;;;;;;5133889;27;20342;-30
2023/12/06 01:33:21;;;;;;;;;;;1.10;99.90;;;;;;5132605;27;20467;-31
2023/12/06 01:35:49;;;;;;;;;;;1.10;99.90;;;;;;5117055;27;19956;-30
2023/12/06 01:38:15;;;;;;;;;;;1.10;99.90;;;;;;5112597;27;19952;-29
2023/12/06 01:40:43;;;;;;;;;;;1.10;99.90;;;;;;5116223;27;20034;-29
2023/12/06 01:43:10;;;;;;;;;;;1.20;99.90;;;;;;5113389;27;19967;-29
2023/12/06 01:45:36;;;;;;;;;;;1.20;99.90;;;;;;5131120;27;20406;-30
2023/12/06 01:48:03;;;;;;;;;;;1.20;99.90;;;;;;5114023;27;19987;-30
2023/12/06 01:50:30;;;;;;;;;;;1.20;99.90;;;;;;5114338;27;20031;-30
2023/12/06 01:52:58;;;;;;;;;;;1.20;99.90;;;;;;5132997;27;19938;-31
2023/12/06 01:55:25;;;;;;;;;;;1.10;99.90;;;;;;5124889;27;20007;-29
2023/12/06 01:57:52;;;;;;;;;;;1.20;99.90;;;;;;5105454;28;19995;-30
2023/12/06 02:00:18;;;;;;;;;;;1.20;99.90;;;;;;5125238;27;19941;-30
2023/12/06 02:02:45;;;;;;;;;;;1.10;99.90;;;;;;5106564;28;19992;-30
2023/12/06 02:05:12;;;;;;;;;;;1.20;99.90;;;;;;5114291;28;19939;-30
2023/12/06 02:07:39;;;;;;;;;;;1.20;99.90;;;;;;5132108;27;19938;-30
2023/12/06 02:10:07;;;;;;;;;;;1.20;99.90;;;;;;5114232;28;20000;-29
2023/12/06 02:12:33;;;;;;;;;;;1.10;99.90;;;;;;5114473;28;19962;-30
2023/12/06 02:15:01;;;;;;;;;;;1.10;99.90;;;;;;5131949;28;19956;-30
2023/12/06 02:17:27;;;;;;;;;;;1.20;99.90;;;;;;5133497;28;19940;-29
2023/12/06 02:19:54;;;;;;;;;;;1.20;99.90;;;;;;5132382;28;19991;-30
2023/12/06 02:22:20;;;;;;;;;;;1.20;99.90;;;;;;5108618;28;20321;-29
2023/12/06 02:24:47;;;;;;;;;;;1.20;99.90;;;;;;5115508;28;19997;-30
2023/12/06 02:27:15;;;;;;;;;;;1.20;99.90;;;;;;5132414;28;19996;-30
2023/12/06 02:29:42;;;;;;;;;;;1.20;99.90;;;;;;5112561;28;19941;-30
2023/12/06 02:32:08;;;;;;;;;;;1.20;99.90;;;;;;5131309;28;19949;-30
2023/12/06 02:34:35;;;;;;;;;;;1.20;99.90;;;;;;5116886;27;19977;-31
2023/12/06 02:37:02;;;;;;;;;;;1.20;99.90;;;;;;5131184;27;19959;-31
2023/12/06 02:39:29;;;;;;;;;;;1.20;99.90;;;;;;5136829;27;20355;-31
2023/12/06 02:42:01;;;;;;;;;;;1.20;99.90;;;;;;5121833;27;19943;-30
2023/12/06 02:44:29;;;;;;;;;;;1.10;99.90;;;;;;5115963;27;20003;-30
2023/12/06 02:46:56;;;;;;;;;;;1.20;99.90;;;;;;5137213;27;20399;-29
2023/12/06 02:49:22;;;;;;;;;;;1.10;99.90;;;;;;5116999;27;19945;-30
2023/12/06 02:51:49;;;;;;;;;;;1.20;99.90;;;;;;5136099;27;19974;-31
2023/12/06 02:54:16;;;;;;;;;;;1.20;99.90;;;;;;5118061;27;19958;-30
2023/12/06 02:56:42;;;;;;;;;;;1.20;99.90;;;;;;5114019;27;19985;-30
2023/12/06 02:59:09;;;;;;;;;;;1.20;99.90;;;;;;5136241;27;20005;-30
2023/12/06 03:01:37;;;;;;;;;;;1.20;99.90;;;;;;5117697;27;19927;-30
2023/12/06 03:04:05;;;;;;;;;;;1.20;99.90;;;;;;5117778;27;19936;-30
2023/12/06 03:06:32;;;;;;;;;;;1.10;99.90;;;;;;5116519;27;19937;-29
2023/12/06 03:08:58;;;;;;;;;;;1.10;99.90;;;;;;5154521;27;19939;-30
2023/12/06 03:11:25;;;;;;;;;;;1.20;99.90;;;;;;5134879;27;19966;-30
2023/12/06 03:13:51;;;;;;;;;;;1.10;99.90;;;;;;5116906;27;20704;-29
2023/12/06 03:16:18;;;;;;;;;;;1.20;99.90;;;;;;5101895;28;19940;-29
2023/12/06 03:18:46;;;;;;;;;;;1.20;99.90;;;;;;5115341;27;19939;-30
2023/12/06 03:21:13;;;;;;;;;;;1.20;99.90;;;;;;5141615;27;19989;-30
2023/12/06 03:23:39;;;;;;;;;;;1.10;99.90;;;;;;5114712;27;19999;-29
2023/12/06 03:26:07;;;;;;;;;;;1.10;99.90;;;;;;5097978;28;20003;-30
2023/12/06 03:28:34;;;;;;;;;;;1.20;99.90;;;;;;5114534;27;19955;-30
2023/12/06 03:31:00;;;;;;;;;;;1.10;99.90;;;;;;5118077;27;19938;-30
2023/12/06 03:33:27;;;;;;;;;;;1.20;99.90;;;;;;5118038;27;19993;-30
2023/12/06 03:35:55;;;;;;;;;;;1.20;99.90;;;;;;5122405;27;19959;-29
2023/12/06 03:38:22;;;;;;;;;;;1.20;99.90;;;;;;5118498;27;19938;-31
2023/12/06 03:40:49;;;;;;;;;;;1.20;99.90;;;;;;5106122;28;19940;-30
2023/12/06 03:43:15;;;;;;;;;;;1.20;99.90;;;;;;5132709;27;20248;-29
2023/12/06 03:45:43;;;;;;;;;;;1.20;99.90;;;;;;5116032;27;19989;-30
2023/12/06 03:48:09;;;;;;;;;;;1.20;99.90;;;;;;5116640;27;19972;-30
2023/12/06 03:50:36;;;;;;;;;;;1.20;99.90;;;;;;5135511;27;19940;-31
2023/12/06 03:53:04;;;;;;;;;;;1.20;99.90;;;;;;5116413;27;19967;-30
2023/12/06 03:55:31;;;;;;;;;;;1.10;99.90;;;;;;5126197;27;19955;-29
2023/12/06 03:57:58;;;;;;;;;;;1.30;99.90;;;;;;5135775;27;20013;-30
2023/12/06 04:00:24;;;;;;;;;;;1.20;99.90;;;;;;5133823;27;19923;-30
2023/12/06 04:02:51;;;;;;;;;;;1.20;99.90;;;;;;5116390;27;20401;-29
2023/12/06 04:05:18;;;;;;;;;;;1.30;99.90;;;;;;5134701;27;19975;-29
2023/12/06 04:07:44;;;;;;;;;;;1.30;99.90;;;;;;5134888;27;19927;-30
2023/12/06 04:10:12;;;;;;;;;;;1.30;99.90;;;;;;5110171;28;20395;-30
2023/12/06 04:12:39;;;;;;;;;;;1.30;99.90;;;;;;5114131;27;19953;-30
2023/12/06 04:15:06;;;;;;;;;;;1.30;99.90;;;;;;5128793;27;19957;-30
2023/12/06 04:17:33;;;;;;;;;;;1.30;99.90;;;;;;5115534;27;19992;-30
2023/12/06 04:19:59;;;;;;;;;;;1.30;99.90;;;;;;5111343;27;19989;-29
2023/12/06 04:22:26;;;;;;;;;;;1.30;99.90;;;;;;5115060;27;20351;-29
2023/12/06 04:24:53;;;;;;;;;;;1.30;99.90;;;;;;5109638;28;19938;-29
2023/12/06 04:27:21;;;;;;;;;;;1.40;99.90;;;;;;5096303;28;19948;-31
2023/12/06 04:29:48;;;;;;;;;;;1.30;99.90;;;;;;5121846;27;20512;-30
2023/12/06 04:32:15;;;;;;;;;;;1.30;99.90;;;;;;5114027;27;20347;-31
2023/12/06 04:34:47;;;;;;;;;;;1.30;99.90;;;;;;5133606;27;19957;-31
2023/12/06 04:37:13;;;;;;;;;;;1.40;99.90;;;;;;5108460;27;19986;-30
2023/12/06 04:39:40;;;;;;;;;;;1.30;99.90;;;;;;5115200;27;19987;-30
2023/12/06 04:42:07;;;;;;;;;;;1.40;99.90;;;;;;5120037;27;19940;-30
2023/12/06 04:44:35;;;;;;;;;;;1.30;99.90;;;;;;5110309;27;19997;-31
2023/12/06 04:47:01;;;;;;;;;;;1.40;99.90;;;;;;5117559;27;19945;-30
2023/12/06 04:49:28;;;;;;;;;;;1.30;99.90;;;;;;5120620;27;20013;-30
2023/12/06 04:51:54;;;;;;;;;;;1.40;99.90;;;;;;5114147;27;20456;-31
2023/12/06 04:54:23;;;;;;;;;;;1.40;99.90;;;;;;5133449;27;20469;-30
2023/12/06 04:56:50;;;;;;;;;;;1.30;99.90;;;;;;5111687;27;19965;-30
2023/12/06 04:59:17;;;;;;;;;;;1.40;99.90;;;;;;5114787;27;19934;-30
2023/12/06 05:01:45;;;;;;;;;;;1.40;99.90;;;;;;5131758;27;20034;-30
2023/12/06 05:04:11;;;;;;;;;;;1.40;99.90;;;;;;5122568;27;19944;-30
2023/12/06 05:06:38;;;;;;;;;;;1.40;99.90;;;;;;5139917;27;19939;-30
2023/12/06 05:09:07;;;;;;;;;;;1.40;99.90;;;;;;5134786;27;20193;-30
2023/12/06 05:11:33;;;;;;;;;;;1.40;99.90;;;;;;5115679;27;20390;-29
2023/12/06 05:14:00;;;;;;;;;;;1.30;99.90;;;;;;5109718;27;20407;-30
2023/12/06 05:16:27;;;;;;;;;;;1.40;99.90;;;;;;5104698;27;20034;-30
2023/12/06 05:18:55;;;;;;;;;;;1.40;99.90;;;;;;5127397;27;19994;-30
2023/12/06 05:21:21;;;;;;;;;;;1.40;99.90;;;;;;5117800;27;19987;-30
2023/12/06 05:23:48;;;;;;;;;;;1.40;99.90;;;;;;5115079;27;19942;-30
2023/12/06 05:26:15;;;;;;;;;;;1.40;99.90;;;;;;5115363;27;19946;-30
2023/12/06 05:28:42;;;;;;;;;;;1.40;99.90;;;;;;5132759;27;20423;-31
2023/12/06 05:31:08;;;;;;;;;;;1.40;99.90;;;;;;5131636;27;20008;-30
2023/12/06 05:33:35;;;;;;;;;;;1.40;99.90;;;;;;5114253;27;19975;-30
2023/12/06 05:36:03;;;;;;;;;;;1.40;99.90;;;;;;5114366;27;20012;-30
2023/12/06 05:38:30;;;;;;;;;;;1.40;99.90;;;;;;5114683;27;19947;-30
2023/12/06 05:40:56;;;;;;;;;;;1.40;99.90;;;;;;5132143;27;19939;-30
2023/12/06 05:43:23;;;;;;;;;;;1.50;99.90;;;;;;5126343;27;20418;-30
2023/12/06 05:45:50;;;;;;;;;;;1.40;99.90;;;;;;5124898;27;20313;-31
2023/12/06 05:48:16;;;;;;;;;;;1.40;99.90;;;;;;5133474;27;20019;-30
2023/12/06 05:50:43;;;;;;;;;;;1.40;99.90;;;;;;5114000;27;19940;-31
2023/12/06 05:53:12;;;;;;;;;;;1.50;99.90;;;;;;5108815;27;19985;-30
2023/12/06 05:55:40;;;;;;;;;;;1.50;99.90;;;;;;5117558;27;19951;-30
2023/12/06 05:58:06;;;;;;;;;;;1.50;99.90;;;;;;5112828;27;19945;-29
2023/12/06 06:00:33;;;;;;;;;;;1.50;99.90;;;;;;5127103;27;19934;-30
2023/12/06 06:02:59;;;;;;;;;;;1.40;99.90;;;;;;5105393;27;19941;-31
2023/12/06 06:05:26;;;;;;;;;;;1.50;99.90;;;;;;5132980;27;19940;-30
2023/12/06 06:07:54;;;;;;;;;;;1.50;99.90;;;;;;5114437;28;20379;-30
2023/12/06 06:10:22;;;;;;;;;;;1.50;99.90;;;;;;5130665;27;19945;-31
2023/12/06 06:12:48;;;;;;;;;;;1.50;99.90;;;;;;5123937;27;19957;-30
2023/12/06 06:15:15;;;;;;;;;;;1.50;99.90;;;;;;5127303;28;19952;-30
2023/12/06 06:17:43;;;;;;;;;;;1.50;99.90;;;;;;5113524;28;19991;-30
2023/12/06 06:20:10;;;;;;;;;;;1.50;99.90;;;;;;5128458;28;19996;-30
2023/12/06 06:22:37;;;;;;;;;;;1.50;99.90;;;;;;5099946;28;19942;-30
2023/12/06 06:25:04;;;;;;;;;;;1.50;99.90;;;;;;5114938;28;19938;-30
2023/12/06 06:27:32;;;;;;;;;;;1.50;99.90;;;;;;5102029;28;19942;-29
2023/12/06 06:29:59;;;;;;;;;;;1.60;99.90;;;;;;5094974;28;19946;-30
2023/12/06 06:32:26;;;;;;;;;;;1.60;99.90;;;;;;5100264;28;20311;-30
2023/12/06 06:34:52;;;;;;;;;;;1.60;99.90;;;;;;5128686;28;19935;-31
2023/12/06 06:37:19;;;;;;;;;;;1.60;99.90;;;;;;5133227;28;19982;-29
2023/12/06 06:39:46;;;;;;;;;;;1.50;99.90;;;;;;5114766;28;19948;-30
2023/12/06 06:42:12;;;;;;;;;;;1.60;99.90;;;;;;5131743;28;19943;-30
2023/12/06 06:44:40;;;;;;;;;;;1.50;99.90;;;;;;5097757;28;19943;-30
2023/12/06 06:47:07;;;;;;;;;;;1.60;99.90;;;;;;5095066;28;20032;-30
2023/12/06 06:49:34;;;;;;;;;;;1.60;99.90;;;;;;5094756;28;19983;-30
2023/12/06 06:52:00;;;;;;;;;;;1.60;99.90;;;;;;5094779;28;20150;-31
2023/12/06 06:54:27;;;;;;;;;;;1.60;99.90;;;;;;5112660;28;19940;-30
2023/12/06 06:56:54;;;;;;;;;;;1.60;99.90;;;;;;5112545;28;20284;-30
2023/12/06 06:59:21;;;;;;;;;;;1.60;99.90;;;;;;5094597;28;19974;-31
2023/12/06 07:01:49;;;;;;;;;;;1.60;99.90;;;;;;5094968;28;20340;-30
2023/12/06 07:04:15;;;;;;;;;;;1.70;99.90;;;;;;5094817;28;19940;-30
2023/12/06 07:06:42;;;;;;;;;;;1.60;99.90;;;;;;5112596;28;20349;-30
2023/12/06 07:09:09;;;;;;;;;;;1.60;99.90;;;;;;5112643;28;19944;-30
2023/12/06 07:11:35;;;;;;;;;;;1.60;99.90;;;;;;5094347;28;20002;-30
2023/12/06 07:14:03;;;;;;;;;;;1.60;99.90;;;;;;5094369;28;19941;-30
2023/12/06 07:16:29;;;;;;;;;;;1.60;99.90;;;;;;5103832;28;19956;-30
2023/12/06 07:18:57;;;;;;;;;;;1.60;99.90;;;;;;5114988;27;20378;-30
2023/12/06 07:21:25;;;;;;;;;;;1.60;99.90;;;;;;5117697;27;19941;-30
2023/12/06 07:23:52;;;;;;;;;;;1.60;99.90;;;;;;5118237;27;20034;-31
2023/12/06 07:26:18;;;;;;;;;;;1.60;99.90;;;;;;5136865;27;19927;-31
2023/12/06 07:28:45;;;;;;;;;;;1.70;99.90;;;;;;5136352;27;19929;-30
2023/12/06 07:31:11;;;;;;;;;;;1.70;99.90;;;;;;5136466;27;19936;-30
2023/12/06 07:33:39;;;;;;;;;;;1.70;99.90;;;;;;5129200;27;19982;-31
2023/12/06 07:36:10;;;;;;;;;;;1.70;99.90;;;;;;5098557;27;20016;-30
2023/12/06 07:38:36;;;;;;;;;;;1.70;99.90;;;;;;5115848;28;19993;-31
2023/12/06 07:41:04;;;;;;;;;;;1.70;99.90;;;;;;5111092;27;20029;-30
2023/12/06 07:43:31;;;;;;;;;;;1.70;99.90;;;;;;5135913;27;19940;-31
2023/12/06 07:45:57;;;;;;;;;;;1.70;99.90;;;;;;5136425;27;19931;-31
2023/12/06 07:48:25;;;;;;;;;;;1.70;99.90;;;;;;5136344;27;20327;-31
2023/12/06 07:50:53;;;;;;;;;;;1.70;99.90;;;;;;5130389;27;20308;-30
2023/12/06 07:53:21;;;;;;;;;;;1.70;99.90;;;;;;5110213;27;19987;-29
2023/12/06 07:55:47;;;;;;;;;;;1.70;99.90;;;;;;5135983;27;20005;-30
2023/12/06 07:58:16;;;;;;;;;;;1.70;99.90;;;;;;5136184;27;19944;-30
2023/12/06 08:00:43;;;;;;;;;;;1.80;99.90;;;;;;5117635;27;20387;-31
2023/12/06 08:03:09;;;;;;;;;;;1.80;99.90;;;;;;5117997;27;19996;-30
2023/12/06 08:05:38;;;;;;;;;;;1.80;99.90;;;;;;5117687;27;19988;-31
2023/12/06 08:08:05;;;;;;;;;;;1.80;99.90;;;;;;5117634;27;20039;-30
2023/12/06 08:10:33;;;;;;;;;;;1.80;99.90;;;;;;5117559;27;19948;-29
2023/12/06 08:13:00;;;;;;;;;;;1.80;99.90;;;;;;5117226;27;19924;-29
2023/12/06 08:15:28;;;;;;;;;;;1.80;99.90;;;;;;5100326;28;19938;-30
2023/12/06 08:17:56;;;;;;;;;;;1.80;99.90;;;;;;5100099;27;19943;-30
2023/12/06 08:20:23;;;;;;;;;;;1.90;99.90;;;;;;5135282;27;19940;-30
2023/12/06 08:22:50;;;;;;;;;;;1.80;99.90;;;;;;5117262;27;19939;-30
2023/12/06 08:25:16;;;;;;;;;;;1.80;99.90;;;;;;5117263;27;20391;-30
2023/12/06 08:27:44;;;;;;;;;;;1.80;99.90;;;;;;5102628;28;19991;-31
2023/12/06 08:30:11;;;;;;;;;;;1.90;99.90;;;;;;5097176;28;19987;-31
2023/12/06 08:32:38;;;;;;;;;;;1.90;99.90;;;;;;5114618;28;19935;-29
2023/12/06 08:35:05;;;;;;;;;;;1.90;99.90;;;;;;5096915;28;19942;-30
2023/12/06 08:37:31;;;;;;;;;;;1.90;99.90;;;;;;5107501;27;19959;-30
2023/12/06 08:39:58;;;;;;;;;;;1.90;99.90;;;;;;5112754;27;19938;-30
2023/12/06 08:42:25;;;;;;;;;;;1.90;99.90;;;;;;5116921;27;19942;-30
2023/12/06 08:44:54;;;;;;;;;;;1.90;99.90;;;;;;5135262;27;19946;-30
2023/12/06 08:47:20;;;;;;;;;;;1.90;99.90;;;;;;5117087;27;19941;-30
2023/12/06 08:49:48;;;;;;;;;;;2.00;99.90;;;;;;5116916;27;19996;-31
2023/12/06 08:52:15;;;;;;;;;;;2.00;99.90;;;;;;5116895;27;20410;-30
2023/12/06 08:54:42;;;;;;;;;;;1.90;99.90;;;;;;5116496;27;19928;-30
2023/12/06 08:57:08;;;;;;;;;;;2.00;99.90;;;;;;5116559;27;20014;-30
2023/12/06 08:59:35;;;;;;;;;;;2.00;99.90;;;;;;5134623;27;19950;-30
2023/12/06 09:02:04;;;;;;;;;;;2.00;99.90;;;;;;5116772;27;19942;-31
2023/12/06 09:04:30;;;;;;;;;;;2.00;99.90;;;;;;5134630;27;19938;-30
2023/12/06 09:06:57;;;;;;;;;;;2.00;99.90;;;;;;5134848;27;19943;-31
2023/12/06 09:09:24;;;;;;;;;;;2.00;99.90;;;;;;5106156;28;19939;-31
2023/12/06 09:11:50;;;;;;;;;;;2.10;99.90;;;;;;5095538;28;19968;-30
2023/12/06 09:14:17;;;;;;;;;;;2.00;99.90;;;;;;5096088;28;20029;-30
2023/12/06 09:16:44;;;;;;;;;;;2.00;99.90;;;;;;5113946;28;20017;-31
2023/12/06 09:19:12;;;;;;;;;;;2.10;99.90;;;;;;5102786;27;19984;-31
2023/12/06 09:21:39;;;;;;;;;;;2.10;99.90;;;;;;5134300;27;19938;-31
2023/12/06 09:24:07;;;;;;;;;;;2.10;99.90;;;;;;5116034;27;19995;-30
2023/12/06 09:26:33;;;;;;;;;;;2.10;99.90;;;;;;5134580;27;19968;-29
2023/12/06 09:29:02;;;;;;;;;;;2.10;99.90;;;;;;5134210;27;19939;-30
2023/12/06 09:31:28;;;;;;;;;;;2.10;99.90;;;;;;5134270;27;19953;-31
2023/12/06 09:33:55;;;;;;;;;;;2.20;99.90;;;;;;5134153;27;19945;-29
2023/12/06 09:36:23;;;;;;;;;;;2.10;99.90;;;;;;5133946;27;19953;-31
2023/12/06 09:38:51;;;;;;;;;;;2.20;99.90;;;;;;5128796;27;19936;-30
2023/12/06 09:41:18;;;;;;;;;;;2.20;99.90;;;;;;5112711;28;19940;-30
2023/12/06 09:43:45;;;;;;;;;;;2.20;99.90;;;;;;5113019;28;20058;-30
2023/12/06 09:46:12;;;;;;;;;;;2.30;99.90;;;;;;5112548;28;19942;-31
2023/12/06 09:48:40;;;;;;;;;;;2.20;99.90;;;;;;5114312;27;20004;-30
2023/12/06 09:51:07;;;;;;;;;;;2.20;99.90;;;;;;5133912;27;19968;-31
2023/12/06 09:53:35;;;;;;;;;;;2.20;99.90;;;;;;5115621;27;20025;-31
2023/12/06 09:56:01;;;;;;;;;;;2.30;99.90;;;;;;5115772;27;19946;-30
2023/12/06 09:58:28;;;;;;;;;;;2.30;99.90;;;;;;5115572;27;19965;-30
2023/12/06 10:00:54;;;;;;;;;;;2.30;99.90;;;;;;5113340;28;20017;-31
2023/12/06 10:03:22;;;;;;;;;;;2.30;99.90;;;;;;5113256;28;19937;-31
2023/12/06 10:05:53;;;;;;;;;;;2.30;99.90;;;;;;5113249;28;19941;-31
2023/12/06 10:08:20;;;;;;;;;;;2.30;99.90;;;;;;5113252;28;19989;-30
2023/12/06 10:10:48;;;;;;;;;;;2.30;99.90;;;;;;5095361;28;19962;-31
2023/12/06 10:13:15;;;;;;;;;;;2.30;99.90;;;;;;5094907;28;19962;-31
2023/12/06 10:15:42;;;;;;;;;;;2.40;99.90;;;;;;5095191;28;19977;-30
2023/12/06 10:18:10;;;;;;;;;;;2.40;99.90;;;;;;5094978;28;20436;-31
2023/12/06 10:20:36;;;;;;;;;;;2.40;99.90;;;;;;5094919;28;20029;-29
2023/12/06 10:23:03;;;;;;;;;;;2.40;99.90;;;;;;5094874;28;19984;-30
2023/12/06 10:25:37;;;;;;;;;;;2.40;99.90;;;;;;5113293;28;19943;-30
2023/12/06 10:28:05;;;;;;;;;;;2.50;99.90;;;;;;5095228;28;19941;-30
2023/12/06 10:30:32;;;;;;;;;;;2.50;99.90;;;;;;5110234;28;19973;-31
2023/12/06 10:32:59;;;;;;;;;;;2.50;99.90;;;;;;5115449;28;19927;-30
2023/12/06 10:35:25;;;;;;;;;;;2.50;99.90;;;;;;5115449;28;20032;-30
2023/12/06 10:37:52;;;;;;;;;;;2.50;99.90;;;;;;5094415;28;19972;-31
2023/12/06 10:40:23;;;;;;;;;;;2.60;99.90;;;;;;5126110;28;19982;-29
2023/12/06 10:42:51;;;;;;;;;;;2.60;99.90;;;;;;5124636;28;20042;-30
2023/12/06 10:45:19;;;;;;;;;;;2.60;99.90;;;;;;5112885;28;20278;-30
2023/12/06 10:47:47;;;;;;;;;;;2.70;99.90;;;;;;5114661;28;19939;-29
2023/12/06 10:50:13;;;;;;;;;;;2.70;99.90;;;;;;5133224;28;19943;-31
2023/12/06 10:52:40;;;;;;;;;;;2.70;99.90;;;;;;5133375;28;20348;-30
2023/12/06 10:55:07;;;;;;;;;;;2.70;99.90;;;;;;5135819;27;19939;-30
2023/12/06 10:57:34;;;;;;;;;;;2.80;99.90;;;;;;5137180;27;19960;-30
2023/12/06 11:00:00;;;;;;;;;;;2.70;99.90;;;;;;5119082;27;19982;-31
2023/12/06 11:02:28;;;;;;;;;;;2.80;99.90;;;;;;5118686;27;19936;-30
2023/12/06 11:04:57;;;;;;;;;;;2.80;99.90;;;;;;5118822;27;19939;-30
2023/12/06 11:07:32;;;;;;;;;;;2.80;99.90;;;;;;5137210;27;19983;-30
2023/12/06 11:10:00;;;;;;;;;;;2.80;99.90;;;;;;5118848;27;19945;-30
2023/12/06 11:12:30;;;;;;;;;;;2.80;99.90;;;;;;5134355;27;20701;-30
2023/12/06 11:15:01;;;;;;;;;;;2.80;99.90;;;;;;5098302;28;19940;-30
2023/12/06 11:17:33;;;;;;;;;;;2.80;99.90;;;;;;5116015;28;20005;-30
2023/12/06 11:20:00;;;;;;;;;;;2.80;99.90;;;;;;5116519;28;19995;-30
2023/12/06 11:22:27;;;;;;;;;;;2.80;99.90;;;;;;5121974;27;19990;-29
2023/12/06 11:24:53;;;;;;;;;;;2.80;99.90;;;;;;5136838;27;20294;-30
2023/12/06 11:27:20;;;;;;;;;;;2.80;99.90;;;;;;5118533;27;19963;-31
2023/12/06 11:29:48;;;;;;;;;;;2.90;99.90;;;;;;5136618;27;20009;-31
2023/12/06 11:32:14;;;;;;;;;;;2.90;99.90;;;;;;5118150;27;19938;-31
2023/12/06 11:34:42;;;;;;;;;;;2.90;99.90;;;;;;5136674;27;19989;-31
2023/12/06 11:37:15;;;;;;;;;;;2.90;99.90;;;;;;5123744;27;20374;-29
2023/12/06 11:39:42;;;;;;;;;;;2.90;99.90;;;;;;5135776;27;19992;-30
2023/12/06 11:42:09;;;;;;;;;;;2.90;99.90;;;;;;5135334;27;19937;-30
2023/12/06 11:44:35;;;;;;;;;;;2.90;99.90;;;;;;5134976;27;19941;-31
2023/12/06 11:47:04;;;;;;;;;;;3.00;99.90;;;;;;5118816;27;20312;-30
2023/12/06 11:49:31;;;;;;;;;;;3.00;99.90;;;;;;5115754;28;20405;-30
2023/12/06 11:52:00;;;;;;;;;;;3.00;99.90;;;;;;5109899;27;20034;-31
2023/12/06 11:54:27;;;;;;;;;;;3.00;99.90;;;;;;5117560;27;19944;-29
2023/12/06 11:56:53;;;;;;;;;;;3.00;99.90;;;;;;5115380;28;19950;-30
2023/12/06 11:59:20;;;;;;;;;;;3.00;99.90;;;;;;5117079;27;20023;-30
2023/12/06 12:01:47;;;;;;;;;;;3.00;99.90;;;;;;5117710;27;19949;-31
2023/12/06 12:04:13;;;;;;;;;;;3.00;99.90;;;;;;5136077;27;19937;-31
2023/12/06 12:06:40;;;;;;;;;;;3.00;99.90;;;;;;5117326;27;19965;-30
2023/12/06 12:09:10;;;;;;;;;;;3.10;99.90;;;;;;5117578;27;19940;-30
2023/12/06 12:11:37;;;;;;;;;;;3.10;99.90;;;;;;5117500;27;20389;-30
2023/12/06 12:14:05;;;;;;;;;;;3.00;99.90;;;;;;5135633;27;20399;-30
2023/12/06 12:16:32;;;;;;;;;;;3.10;99.90;;;;;;5117416;27;19993;-30
2023/12/06 12:19:00;;;;;;;;;;;3.00;99.90;;;;;;5119550;27;20012;-31
2023/12/06 12:21:27;;;;;;;;;;;3.00;99.90;;;;;;5097130;28;19946;-30
2023/12/06 12:23:54;;;;;;;;;;;3.10;99.90;;;;;;5115036;28;20025;-30
2023/12/06 12:26:22;;;;;;;;;;;3.00;99.90;;;;;;5096748;28;19943;-31
2023/12/06 12:28:49;;;;;;;;;;;3.10;99.90;;;;;;5109994;27;19938;-30
2023/12/06 12:31:16;;;;;;;;;;;3.00;99.90;;;;;;5117224;27;19979;-30
2023/12/06 12:33:43;;;;;;;;;;;3.00;99.90;;;;;;5117261;27;19943;-29
2023/12/06 12:36:10;;;;;;;;;;;3.00;99.90;;;;;;5118279;27;19945;-30
2023/12/06 12:38:37;;;;;;;;;;;3.10;99.90;;;;;;5109519;27;19955;-29
2023/12/06 12:41:03;;;;;;;;;;;3.00;99.90;;;;;;5115766;27;20396;-29
2023/12/06 12:43:31;;;;;;;;;;;3.00;99.90;;;;;;5134927;27;19937;-29
2023/12/06 12:45:58;;;;;;;;;;;3.10;99.90;;;;;;5111613;27;19994;-30
2023/12/06 12:48:25;;;;;;;;;;;3.10;99.90;;;;;;5116696;27;19955;-31
2023/12/06 12:51:05;;;;;;;;;;;3.10;99.90;;;;;;5116944;27;19945;-29
2023/12/06 12:53:31;;;;;;;;;;;3.10;99.90;;;;;;5116731;27;19963;-29
2023/12/06 12:55:58;;;;;;;;;;;3.10;99.90;;;;;;5134041;27;20425;-30
2023/12/06 12:58:28;;;;;;;;;;;3.10;99.90;;;;;;5134450;27;20017;-29
2023/12/06 13:00:56;;;;;;;;;;;3.10;99.90;;;;;;5115774;27;19939;-30
2023/12/06 13:03:24;;;;;;;;;;;3.10;99.90;;;;;;5116349;27;19991;-30
2023/12/06 13:05:50;;;;;;;;;;;3.10;99.90;;;;;;5134651;27;19958;-29
2023/12/06 13:08:17;;;;;;;;;;;3.10;99.90;;;;;;5116531;27;19968;-30
2023/12/06 13:10:44;;;;;;;;;;;3.10;99.90;;;;;;5115919;27;19946;-30
2023/12/06 13:13:10;;;;;;;;;;;3.10;99.90;;;;;;5098572;28;20003;-30
2023/12/06 13:15:37;;;;;;;;;;;3.10;99.90;;;;;;5093479;28;19942;-31
2023/12/06 13:18:07;;;;;;;;;;;3.10;99.90;;;;;;5090743;28;20384;-31
2023/12/06 13:20:33;;;;;;;;;;;3.10;99.90;;;;;;5093475;28;19948;-30
2023/12/06 13:23:00;;;;;;;;;;;3.10;99.90;;;;;;5092169;28;20001;-30
2023/12/06 13:25:26;;;;;;;;;;;3.10;99.90;;;;;;5091633;28;19950;-30
2023/12/06 13:27:53;;;;;;;;;;;3.10;99.90;;;;;;5092060;28;19999;-31
2023/12/06 13:30:20;;;;;;;;;;;3.10;99.90;;;;;;5091985;28;19944;-31
2023/12/06 13:32:47;;;;;;;;;;;3.10;99.90;;;;;;5092045;28;19924;-30
2023/12/06 13:35:15;;;;;;;;;;;3.10;99.90;;;;;;5089848;28;20302;-31
2023/12/06 13:37:41;;;;;;;;;;;3.10;99.90;;;;;;5091019;28;19948;-31
2023/12/06 13:40:09;;;;;;;;;;;3.10;99.90;;;;;;5078868;28;20446;-31
2023/12/06 13:42:35;;;;;;;;;;;3.10;99.90;;;;;;5102260;28;19941;-30
2023/12/06 13:45:02;;;;;;;;;;;3.20;99.90;;;;;;5091539;28;19938;-32
2023/12/06 13:47:28;;;;;;;;;;;3.20;99.90;;;;;;5087492;28;19940;-31
2023/12/06 13:49:55;;;;;;;;;;;3.20;99.90;;;;;;5112118;28;19995;-31
2023/12/06 13:52:23;;;;;;;;;;;3.20;99.90;;;;;;5095245;28;19994;-31
2023/12/06 13:54:50;;;;;;;;;;;3.20;99.90;;;;;;5112207;28;19940;-31
2023/12/06 13:57:16;;;;;;;;;;;3.20;99.90;;;;;;5093743;28;19934;-31
2023/12/06 13:59:43;;;;;;;;;;;3.20;99.90;;;;;;5095080;28;19939;-30
2023/12/06 14:02:10;;;;;;;;;;;3.20;99.90;;;;;;5095512;28;20363;-30
2023/12/06 14:04:38;;;;;;;;;;;3.20;99.90;;;;;;5090661;28;19945;-29
2023/12/06 14:07:05;;;;;;;;;;;3.20;99.90;;;;;;5085122;28;19988;-31
2023/12/06 14:09:33;;;;;;;;;;;3.20;99.90;;;;;;5113167;28;19993;-30
2023/12/06 14:12:01;;;;;;;;;;;3.20;99.90;;;;;;5094189;28;19999;-31
2023/12/06 14:14:27;;;;;;;;;;;3.20;99.90;;;;;;5095391;28;19932;-31
2023/12/06 14:16:54;;;;;;;;;;;3.20;99.90;;;;;;5112166;28;19989;-30
2023/12/06 14:19:23;;;;;;;;;;;3.20;99.90;;;;;;5098605;28;19924;-31
2023/12/06 14:21:50;;;;;;;;;;;3.20;99.90;;;;;;5093877;28;19944;-31
2023/12/06 14:24:16;;;;;;;;;;;3.10;99.90;;;;;;5112811;28;20290;-31
2023/12/06 14:26:45;;;;;;;;;;;3.20;99.90;;;;;;5094772;28;19955;-31
2023/12/06 14:29:12;;;;;;;;;;;3.20;99.90;;;;;;5113943;28;20400;-31